createdAt,value
2022-08-17T00:00:43.957Z,18.37
2022-08-17T00:03:19.682Z,18.33
2022-08-17T00:06:12.337Z,18.32
2022-08-17T00:09:01.741Z,18.30
2022-08-17T00:11:38.707Z,18.27
2022-08-17T00:14:19.975Z,18.25
2022-08-17T00:16:57.247Z,18.26
2022-08-17T00:19:27.038Z,18.24
2022-08-17T00:22:33.811Z,18.24
2022-08-17T00:24:49.226Z,18.24
2022-08-17T00:27:18.733Z,18.22
2022-08-17T00:29:47.348Z,18.22
2022-08-17T00:33:14.482Z,18.23
2022-08-17T00:35:08.250Z,18.25
2022-08-17T00:37:36.905Z,18.26
2022-08-17T00:40:07.220Z,18.31
2022-08-17T00:42:36.368Z,18.30
2022-08-17T00:45:08.407Z,18.31
2022-08-17T00:47:37.071Z,18.32
2022-08-17T00:50:09.776Z,18.31
2022-08-17T00:52:48.153Z,18.33
2022-08-17T00:55:17.860Z,18.33
2022-08-17T00:57:55.216Z,18.33
2022-08-17T01:00:40.683Z,18.32
2022-08-17T01:03:19.776Z,18.31
2022-08-17T01:05:52.137Z,18.30
2022-08-17T01:08:26.297Z,18.32
2022-08-17T01:11:01.858Z,18.36
2022-08-17T01:13:43.177Z,18.36
2022-08-17T01:16:22.323Z,18.37
2022-08-17T01:18:55.649Z,18.36
2022-08-17T01:21:52.158Z,18.34
2022-08-17T01:24:21.365Z,18.31
2022-08-17T01:26:50.594Z,18.28
2022-08-17T01:29:22.523Z,18.27
2022-08-17T01:31:59.080Z,18.26
2022-08-17T01:34:42.429Z,18.27
2022-08-17T01:37:15.117Z,18.29
2022-08-17T01:39:56.365Z,18.30
2022-08-17T01:42:36.853Z,18.30
2022-08-17T01:45:13.023Z,18.29
2022-08-17T01:47:42.321Z,18.27
2022-08-17T01:50:20.020Z,18.27
2022-08-17T01:52:54.373Z,18.29
2022-08-17T01:55:32.344Z,18.28
2022-08-17T01:58:02.144Z,18.27
2022-08-17T02:01:00.279Z,18.32
2022-08-17T02:03:23.115Z,18.33
2022-08-17T02:05:53.690Z,18.31
2022-08-17T02:08:36.984Z,18.31
2022-08-17T02:11:16.935Z,18.29
2022-08-17T02:13:48.645Z,18.27
2022-08-17T02:16:26.501Z,18.26
2022-08-17T02:19:14.382Z,18.25
2022-08-17T02:21:46.072Z,18.28
2022-08-17T02:24:59.842Z,18.31
2022-08-17T02:27:18.294Z,18.31
2022-08-17T02:29:47.013Z,18.30
2022-08-17T02:32:28.107Z,18.27
2022-08-17T02:34:58.981Z,18.25
2022-08-17T02:37:32.091Z,18.21
2022-08-17T02:40:00.947Z,18.20
2022-08-17T02:42:41.091Z,18.19
2022-08-17T02:45:18.149Z,18.20
2022-08-17T02:47:47.884Z,18.21
2022-08-17T02:50:20.809Z,18.24
2022-08-17T02:52:53.253Z,18.24
2022-08-17T02:55:35.546Z,18.24
2022-08-17T02:58:05.283Z,18.25
2022-08-17T03:00:41.273Z,18.24
2022-08-17T03:03:13.898Z,18.25
2022-08-17T03:05:43.214Z,18.28
2022-08-17T03:08:13.383Z,18.37
2022-08-17T03:10:44.415Z,18.39
2022-08-17T03:13:14.941Z,18.38
2022-08-17T03:15:45.663Z,18.37
2022-08-17T03:18:24.190Z,18.33
2022-08-17T03:21:01.637Z,18.30
2022-08-17T03:23:32.571Z,18.28
2022-08-17T03:26:01.575Z,18.33
2022-08-17T03:28:31.062Z,18.36
2022-08-17T03:30:59.788Z,18.41
2022-08-17T03:33:28.373Z,18.47
2022-08-17T03:35:57.431Z,18.51
2022-08-17T03:38:26.710Z,18.57
2022-08-17T03:40:59.478Z,18.58
2022-08-17T03:43:31.756Z,18.62
2022-08-17T03:46:34.190Z,18.66
2022-08-17T03:49:25.940Z,18.70
2022-08-17T03:52:15.052Z,18.78
2022-08-17T03:55:03.444Z,18.81
2022-08-17T03:57:32.562Z,18.83
2022-08-17T04:00:01.374Z,18.83
2022-08-17T04:02:42.987Z,18.91
2022-08-17T04:05:11.623Z,18.97
2022-08-17T04:07:40.373Z,19.03
2022-08-17T04:10:09.267Z,19.10
2022-08-17T04:12:53.143Z,19.17
2022-08-17T04:15:23.260Z,19.25
2022-08-17T04:17:53.266Z,19.33
2022-08-17T04:20:24.526Z,19.42
2022-08-17T04:23:10.018Z,19.51
2022-08-17T04:25:43.744Z,19.59
2022-08-17T04:28:16.163Z,19.66
2022-08-17T04:30:46.916Z,19.70
2022-08-17T04:33:25.846Z,19.71
2022-08-17T04:35:59.383Z,19.75
2022-08-17T04:38:35.664Z,19.80
2022-08-17T04:41:24.085Z,19.90
2022-08-17T04:43:58.694Z,19.95
2022-08-17T04:46:36.358Z,19.97
2022-08-17T04:49:11.716Z,19.98
2022-08-17T04:51:54.705Z,19.99
2022-08-17T04:54:25.578Z,19.96
2022-08-17T04:56:54.287Z,19.99
2022-08-17T04:59:23.452Z,20.05
2022-08-17T05:01:52.811Z,20.10
2022-08-17T05:04:33.802Z,20.13
2022-08-17T05:07:04.943Z,20.15
2022-08-17T05:09:33.697Z,20.29
2022-08-17T05:12:03.349Z,20.43
2022-08-17T05:14:33.650Z,20.52
2022-08-17T05:17:07.234Z,20.59
2022-08-17T05:19:38.277Z,20.68
2022-08-17T05:22:07.056Z,20.77
2022-08-17T05:24:40.731Z,20.89
2022-08-17T05:27:15.897Z,20.90
2022-08-17T05:29:48.108Z,21.06
2022-08-17T05:32:39.480Z,21.20
2022-08-17T05:35:06.811Z,21.42
2022-08-17T05:37:35.506Z,21.57
2022-08-17T05:40:05.250Z,21.73
2022-08-17T05:42:33.964Z,21.75
2022-08-17T05:45:02.572Z,21.81
2022-08-17T05:47:31.583Z,21.87
2022-08-17T05:50:02.147Z,21.96
2022-08-17T05:53:18.590Z,22.06
2022-08-17T05:56:29.354Z,22.09
2022-08-17T05:59:17.308Z,22.11
2022-08-17T06:02:05.729Z,22.30
2022-08-17T06:05:18.922Z,22.49
2022-08-17T06:08:02.878Z,22.52
2022-08-17T06:10:49.559Z,22.61
2022-08-17T06:13:42.184Z,22.80
2022-08-17T06:16:33.152Z,23.02
2022-08-17T06:19:23.615Z,23.25
2022-08-17T06:21:55.916Z,23.45
2022-08-17T06:24:44.216Z,23.65
2022-08-17T06:27:18.975Z,23.51
2022-08-17T06:30:01.304Z,23.49
2022-08-17T06:32:30.158Z,23.47
2022-08-17T06:35:01.628Z,23.49
2022-08-17T06:38:36.891Z,23.50
2022-08-17T06:41:54.950Z,23.55
2022-08-17T06:44:50.057Z,23.59
2022-08-17T06:48:13.383Z,23.59
2022-08-17T06:50:53.673Z,23.54
2022-08-17T06:53:29.553Z,23.54
2022-08-17T06:56:25.805Z,23.56
2022-08-17T07:01:23.219Z,23.56
2022-08-17T07:04:19.375Z,23.43
2022-08-17T07:07:27.200Z,23.47
2022-08-17T07:10:00.428Z,23.31
2022-08-17T07:12:38.669Z,23.27
2022-08-17T07:15:26.380Z,23.37
2022-08-17T07:17:55.962Z,23.42
2022-08-17T07:20:25.460Z,23.47
2022-08-17T07:23:34.793Z,23.34
2022-08-17T07:26:09.549Z,23.30
2022-08-17T07:28:40.796Z,23.14
2022-08-17T07:31:09.666Z,23.03
2022-08-17T07:33:39.653Z,22.91
2022-08-17T07:36:30.066Z,22.81
2022-08-17T07:38:59.105Z,22.82
2022-08-17T07:41:53.334Z,22.78
2022-08-17T07:44:21.066Z,22.80
2022-08-17T07:47:11.869Z,22.83
2022-08-17T07:49:46.573Z,22.73
2022-08-17T07:52:51.167Z,22.62
2022-08-17T07:55:35.637Z,22.49
2022-08-17T07:58:04.292Z,22.50
2022-08-17T08:00:34.025Z,22.55
2022-08-17T08:03:16.836Z,22.62
2022-08-17T08:05:56.568Z,22.58
2022-08-17T08:08:37.903Z,22.67
2022-08-17T08:11:18.098Z,22.77
2022-08-17T08:13:46.904Z,22.98
2022-08-17T08:16:26.259Z,23.39
2022-08-17T08:19:02.147Z,23.73
2022-08-17T08:21:52.284Z,24.04
2022-08-17T08:24:32.929Z,24.42
2022-08-17T08:27:41.426Z,24.71
2022-08-17T08:30:19.598Z,24.82
2022-08-17T08:32:57.682Z,24.80
2022-08-17T08:39:09.344Z,24.43
2022-08-17T08:46:07.084Z,24.96
2022-08-17T08:49:12.070Z,25.20
2022-08-17T08:51:58.067Z,25.30
2022-08-17T08:54:48.935Z,25.27
2022-08-17T08:57:41.727Z,25.22
2022-08-17T09:00:20.799Z,25.33
2022-08-17T09:15:29.117Z,25.46
2022-08-17T09:19:00.247Z,25.40
2022-08-17T09:21:18.084Z,25.12
2022-08-17T09:24:26.623Z,24.75
2022-08-17T09:27:19.068Z,24.50
2022-08-17T09:30:01.048Z,24.38
2022-08-17T09:32:42.976Z,24.29
2022-08-17T09:35:37.470Z,24.15
2022-08-17T09:38:15.191Z,24.11
2022-08-17T09:41:16.401Z,24.14
2022-08-17T09:44:27.149Z,24.14
2022-08-17T09:47:10.668Z,24.49
2022-08-17T09:50:08.978Z,24.84
2022-08-17T09:52:38.137Z,25.26
2022-08-17T09:55:07.311Z,25.53
2022-08-17T09:57:49.500Z,25.54
2022-08-17T10:00:32.800Z,25.20
2022-08-17T10:03:28.485Z,25.22
2022-08-17T10:06:06.575Z,25.28
2022-08-17T10:09:13.497Z,25.54
2022-08-17T10:12:16.730Z,25.79
2022-08-17T10:15:11.523Z,25.75
2022-08-17T10:17:56.634Z,26.01
2022-08-17T10:20:45.474Z,26.38
2022-08-17T10:23:45.207Z,26.35
2022-08-17T10:26:27.279Z,26.62
2022-08-17T10:29:20.400Z,26.94
2022-08-17T10:32:05.004Z,27.24
2022-08-17T10:35:04.366Z,27.35
2022-08-17T10:37:56.909Z,27.37
2022-08-17T10:40:37.226Z,27.67
2022-08-17T10:43:36.542Z,27.58
2022-08-17T10:46:52.554Z,27.28
2022-08-17T10:49:21.529Z,27.16
2022-08-17T10:51:57.244Z,27.51
2022-08-17T10:54:25.748Z,27.80
2022-08-17T10:56:57.082Z,28.42
2022-08-17T10:59:37.732Z,28.39
2022-08-17T11:02:39.222Z,28.44
2022-08-17T11:05:46.836Z,28.71
2022-08-17T11:09:01.165Z,28.44
2022-08-17T11:12:07.472Z,28.04
2022-08-17T11:14:48.907Z,28.60
2022-08-17T11:17:35.506Z,28.68
2022-08-17T11:24:34.730Z,28.71
2022-08-17T11:27:05.985Z,28.33
2022-08-17T11:30:01.853Z,28.35
2022-08-17T11:32:48.682Z,28.43
2022-08-17T11:35:21.798Z,28.79
2022-08-17T11:38:03.370Z,29.07
2022-08-17T11:40:38.817Z,28.68
2022-08-17T11:43:43.700Z,28.43
2022-08-17T11:47:17.090Z,27.83
2022-08-17T11:50:36.716Z,27.07
2022-08-17T11:53:06.659Z,27.26
2022-08-17T11:55:39.407Z,27.85
2022-08-17T11:58:44.712Z,28.35
2022-08-17T12:01:22.857Z,28.72
2022-08-17T12:03:58.053Z,29.21
2022-08-17T12:06:51.123Z,29.59
2022-08-17T12:11:02.073Z,30.05
2022-08-17T12:19:50.985Z,31.75
2022-08-17T12:24:27.752Z,32.16
2022-08-17T12:27:46.204Z,31.03
2022-08-17T12:30:32.879Z,31.57
2022-08-17T12:33:01.598Z,31.29
2022-08-17T12:35:36.831Z,30.61
2022-08-17T12:44:04.080Z,29.80
2022-08-17T12:55:41.028Z,31.24
2022-08-17T12:58:14.711Z,30.97
2022-08-17T13:01:17.418Z,30.70
2022-08-17T13:14:11.678Z,31.69
2022-08-17T13:16:40.345Z,32.14
2022-08-17T13:19:15.459Z,32.50
2022-08-17T13:22:04.120Z,32.83
2022-08-17T13:24:53.322Z,32.99
2022-08-17T13:27:26.022Z,32.87
2022-08-17T13:30:00.320Z,32.98
2022-08-17T13:32:48.279Z,32.36
2022-08-17T13:35:45.884Z,32.05
2022-08-17T13:38:49.763Z,32.62
2022-08-17T13:41:38.094Z,32.71
2022-08-17T13:44:37.137Z,32.99
2022-08-17T13:47:27.142Z,33.20
2022-08-17T13:49:56.346Z,33.29
2022-08-17T13:52:39.483Z,33.19
2022-08-17T13:55:32.282Z,33.84
2022-08-17T13:58:06.758Z,33.63
2022-08-17T14:00:36.977Z,33.49
2022-08-17T14:03:06.006Z,33.61
2022-08-17T14:05:37.425Z,33.58
2022-08-17T14:08:07.326Z,33.94
2022-08-17T14:10:36.849Z,34.00
2022-08-17T14:13:07.300Z,33.45
2022-08-17T14:15:55.725Z,33.44
2022-08-17T14:18:55.563Z,33.70
2022-08-17T14:21:14.085Z,33.68
2022-08-17T14:23:49.955Z,33.40
2022-08-17T14:26:26.834Z,33.24
2022-08-17T14:28:56.226Z,33.27
2022-08-17T14:33:34.175Z,32.95
2022-08-17T14:36:03.356Z,32.43
2022-08-17T14:38:32.715Z,32.11
2022-08-17T14:41:02.531Z,31.62
2022-08-17T14:43:35.516Z,31.13
2022-08-17T14:46:04.329Z,31.07
2022-08-17T14:48:35.186Z,30.92
2022-08-17T14:51:05.148Z,30.85
2022-08-17T14:53:43.407Z,30.88
2022-08-17T14:56:13.581Z,31.04
2022-08-17T14:58:42.789Z,31.34
2022-08-17T15:01:13.561Z,31.36
2022-08-17T15:03:42.976Z,31.38
2022-08-17T15:06:14.909Z,31.28
2022-08-17T15:08:45.151Z,30.93
2022-08-17T15:11:14.959Z,31.13
2022-08-17T15:13:52.480Z,30.75
2022-08-17T15:16:23.514Z,30.48
2022-08-17T15:18:52.974Z,30.30
2022-08-17T15:21:22.876Z,30.36
2022-08-17T15:23:51.619Z,30.10
2022-08-17T15:26:25.635Z,29.63
2022-08-17T15:28:56.347Z,29.36
2022-08-17T15:31:31.901Z,29.05
2022-08-17T15:34:01.324Z,28.75
2022-08-17T15:36:32.337Z,28.49
2022-08-17T15:39:01.057Z,28.26
2022-08-17T15:41:29.834Z,28.05
2022-08-17T15:43:58.551Z,27.83
2022-08-17T15:46:27.599Z,27.66
2022-08-17T15:48:59.461Z,27.43
2022-08-17T15:51:32.057Z,27.25
2022-08-17T15:54:19.046Z,27.13
2022-08-17T15:56:51.550Z,26.88
2022-08-17T15:59:20.387Z,26.18
2022-08-17T16:03:13.445Z,24.63
2022-08-17T16:04:40.339Z,23.06
2022-08-17T16:07:12.969Z,22.31
2022-08-17T16:09:42.230Z,21.63
2022-08-17T16:12:21.417Z,21.26
2022-08-17T16:14:51.988Z,20.88
2022-08-17T16:17:38.838Z,20.59
2022-08-17T16:20:20.472Z,20.47
2022-08-17T16:22:51.217Z,20.54
2022-08-17T16:25:38.865Z,20.63
2022-08-17T16:28:18.916Z,20.88
2022-08-17T16:30:47.625Z,21.02
2022-08-17T16:33:16.988Z,21.14
2022-08-17T16:35:45.607Z,21.20
2022-08-17T16:38:14.320Z,21.36
2022-08-17T16:40:42.959Z,21.36
2022-08-17T16:43:12.467Z,21.37
2022-08-17T16:45:42.631Z,21.32
2022-08-17T16:48:12.264Z,21.32
2022-08-17T16:50:41.039Z,21.31
2022-08-17T16:53:17.394Z,21.28
2022-08-17T16:55:48.995Z,21.31
2022-08-17T16:58:18.121Z,21.29
2022-08-17T17:00:48.946Z,21.32
2022-08-17T17:03:25.122Z,21.35
2022-08-17T17:05:59.920Z,21.40
2022-08-17T17:08:46.947Z,21.45
2022-08-17T17:11:44.406Z,21.48
2022-08-17T17:14:43.301Z,21.46
2022-08-17T17:17:24.327Z,21.42
2022-08-17T17:20:22.971Z,21.38
2022-08-17T17:23:23.216Z,21.31
2022-08-17T17:26:25.015Z,21.27
2022-08-17T17:29:09.330Z,21.23
2022-08-17T17:31:51.457Z,21.23
2022-08-17T17:34:21.225Z,21.20
2022-08-17T17:36:58.537Z,21.20
2022-08-17T17:39:46.232Z,21.15
2022-08-17T17:42:22.075Z,21.24
2022-08-17T17:45:26.277Z,21.25
2022-08-17T17:47:55.005Z,21.24
2022-08-17T17:50:38.377Z,21.24
2022-08-17T17:53:26.097Z,21.23
2022-08-17T17:56:40.522Z,21.17
2022-08-17T17:59:27.945Z,21.11
2022-08-17T18:02:51.967Z,21.07
2022-08-17T18:05:51.660Z,21.04
2022-08-17T18:08:38.267Z,21.06
2022-08-17T18:11:37.944Z,21.08
2022-08-17T18:14:45.959Z,21.08
2022-08-17T18:17:14.942Z,21.05
2022-08-17T18:19:43.540Z,21.01
2022-08-17T18:22:31.567Z,20.99
2022-08-17T18:25:00.176Z,20.96
2022-08-17T18:27:39.283Z,20.91
2022-08-17T18:30:14.097Z,20.89
2022-08-17T18:32:46.688Z,20.84
2022-08-17T18:35:15.242Z,20.80
2022-08-17T18:37:54.119Z,20.75
2022-08-17T18:40:33.563Z,20.67
2022-08-17T18:43:44.495Z,20.64
2022-08-17T18:46:29.714Z,20.59
2022-08-17T18:49:08.819Z,20.59
2022-08-17T18:51:43.169Z,20.59
2022-08-17T18:54:22.013Z,20.60
2022-08-17T18:56:59.397Z,20.57
2022-08-17T18:59:29.977Z,20.59
2022-08-17T19:01:59.343Z,20.59
2022-08-17T19:04:59.248Z,20.56
2022-08-17T19:07:38.349Z,20.52
2022-08-17T19:10:29.060Z,20.48
2022-08-17T19:13:23.921Z,20.47
2022-08-17T19:16:11.576Z,20.45
2022-08-17T19:18:56.945Z,20.43
2022-08-17T19:21:45.921Z,20.42
2022-08-17T19:24:23.147Z,20.36
2022-08-17T19:27:25.223Z,20.30
2022-08-17T19:30:12.471Z,20.24
2022-08-17T19:32:41.162Z,20.22
2022-08-17T19:35:17.166Z,20.19
2022-08-17T19:38:13.252Z,20.18
2022-08-17T19:41:37.473Z,20.16
2022-08-17T19:44:23.296Z,20.18
2022-08-17T19:47:43.787Z,20.20
2022-08-17T19:50:50.090Z,20.19
2022-08-17T19:54:04.473Z,20.15
2022-08-17T19:56:56.927Z,20.10
2022-08-17T20:00:02.510Z,20.13
2022-08-17T20:03:26.919Z,20.14
2022-08-17T20:07:19.549Z,20.14
2022-08-17T20:27:54.821Z,20.03
2022-08-17T20:30:56.505Z,20.00
2022-08-17T20:33:37.061Z,19.98
2022-08-17T20:36:20.548Z,19.96
2022-08-17T20:39:40.357Z,19.91
2022-08-17T20:46:11.930Z,19.87
2022-08-17T20:49:55.728Z,19.84
2022-08-17T20:52:55.289Z,19.83
2022-08-17T20:55:51.671Z,19.81
2022-08-17T20:58:31.129Z,19.82
2022-08-17T21:01:34.833Z,19.87
2022-08-17T21:04:09.283Z,19.87
2022-08-17T21:10:37.753Z,19.91
2022-08-17T21:13:13.803Z,19.93
2022-08-17T21:15:56.970Z,19.95
2022-08-17T21:18:39.232Z,19.98
2022-08-17T21:21:47.438Z,19.99
2022-08-17T21:24:47.912Z,20.00
2022-08-17T21:27:55.349Z,20.01
2022-08-17T21:30:28.642Z,20.06
2022-08-17T21:33:25.289Z,20.04
2022-08-17T21:35:59.575Z,20.06
2022-08-17T21:38:49.117Z,20.04
2022-08-17T21:41:29.133Z,20.05
2022-08-17T21:44:18.945Z,20.09
2022-08-17T21:46:50.832Z,20.09
2022-08-17T21:49:27.409Z,20.07
2022-08-17T21:51:59.234Z,20.08
2022-08-17T21:54:34.891Z,20.07
2022-08-17T21:57:16.279Z,20.06
2022-08-17T21:59:45.281Z,19.99
2022-08-17T22:02:43.758Z,19.96
2022-08-17T22:05:15.504Z,19.97
2022-08-17T22:08:21.824Z,19.84
2022-08-17T22:11:04.477Z,19.88
2022-08-17T22:13:38.822Z,19.83
2022-08-17T22:16:29.049Z,19.78
2022-08-17T22:19:05.266Z,19.75
2022-08-17T22:21:34.139Z,19.73
2022-08-17T22:24:18.227Z,19.73
2022-08-17T22:27:11.797Z,19.74
2022-08-17T22:30:22.466Z,19.74
2022-08-17T22:32:51.636Z,19.75
2022-08-17T22:35:43.701Z,19.79
2022-08-17T22:38:21.420Z,19.80
2022-08-17T22:40:58.143Z,19.76
2022-08-17T22:43:31.839Z,19.75
2022-08-17T22:46:09.249Z,19.70
2022-08-17T22:48:46.799Z,19.67
2022-08-17T22:51:23.551Z,19.62
2022-08-17T22:54:18.770Z,19.60
2022-08-17T22:57:19.960Z,19.56
2022-08-17T22:59:55.394Z,19.58
2022-08-17T23:02:28.970Z,19.60
2022-08-17T23:05:10.421Z,19.62
2022-08-17T23:07:45.170Z,19.65
2022-08-17T23:10:15.883Z,19.61
2022-08-17T23:12:44.619Z,19.66
2022-08-17T23:15:24.273Z,19.66
2022-08-17T23:17:55.817Z,19.62
2022-08-17T23:20:24.627Z,19.60
2022-08-17T23:22:53.660Z,19.57
2022-08-17T23:25:28.486Z,19.56
2022-08-17T23:28:01.756Z,19.60
2022-08-17T23:30:44.249Z,19.58
2022-08-17T23:33:39.329Z,19.57
2022-08-17T23:36:15.301Z,19.57
2022-08-17T23:38:47.105Z,19.60
2022-08-17T23:41:20.446Z,19.60
2022-08-17T23:43:53.462Z,19.62
2022-08-17T23:46:25.323Z,19.62
2022-08-17T23:48:54.388Z,19.63
2022-08-17T23:51:28.776Z,19.64
2022-08-17T23:54:11.823Z,19.63
2022-08-17T23:56:47.043Z,19.63
2022-08-17T23:59:18.835Z,19.63
